createdAt,value
2023-03-05T00:01:25.147Z,98810.03
2023-03-05T00:03:54.451Z,98813.69
2023-03-05T00:06:23.934Z,98803.63
2023-03-05T00:08:53.195Z,98809.50
2023-03-05T00:11:21.084Z,98807.44
2023-03-05T00:13:47.949Z,98809.03
2023-03-05T00:16:16.088Z,98812.03
2023-03-05T00:18:43.749Z,98809.31
2023-03-05T00:21:25.649Z,98814.06
2023-03-05T00:23:54.061Z,98805.69
2023-03-05T00:26:24.918Z,98805.31
2023-03-05T00:28:52.386Z,98804.09
2023-03-05T00:31:26.518Z,98811.75
2023-03-05T00:33:56.071Z,98800.88
2023-03-05T00:36:24.572Z,98799.72
2023-03-05T00:38:51.543Z,98797.19
2023-03-05T00:41:18.062Z,98800.53
2023-03-05T00:43:44.662Z,98802.41
2023-03-05T00:46:11.308Z,98798.63
2023-03-05T00:48:37.827Z,98791.13
2023-03-05T00:51:04.902Z,98793.50
2023-03-05T00:53:31.805Z,98784.03
2023-03-05T00:55:59.167Z,98787.84
2023-03-05T00:58:25.897Z,98782.72
2023-03-05T01:00:52.361Z,98777.47
2023-03-05T01:03:19.602Z,98777.69
2023-03-05T01:05:46.237Z,98778.22
2023-03-05T01:08:12.735Z,98775.34
2023-03-05T01:10:39.240Z,98781.72
2023-03-05T01:13:05.771Z,98776.44
2023-03-05T01:15:32.256Z,98776.19
2023-03-05T01:17:58.897Z,98776.84
2023-03-05T01:20:25.444Z,98776.00
2023-03-05T01:22:52.775Z,98771.19
2023-03-05T01:25:19.823Z,98766.78
2023-03-05T01:27:47.168Z,98761.38
2023-03-05T01:30:15.738Z,98758.22
2023-03-05T01:32:42.888Z,98751.91
2023-03-05T01:35:16.762Z,98754.59
2023-03-05T01:37:43.356Z,98752.94
2023-03-05T01:40:14.164Z,98746.59
2023-03-05T01:42:45.121Z,98750.84
2023-03-05T01:45:16.061Z,98738.97
2023-03-05T01:47:43.142Z,98732.72
2023-03-05T01:50:17.288Z,98728.81
2023-03-05T01:52:52.756Z,98728.81
2023-03-05T01:55:28.294Z,98720.69
2023-03-05T01:58:08.076Z,98719.78
2023-03-05T02:00:41.459Z,98721.81
2023-03-05T02:03:12.126Z,98708.31
2023-03-05T02:05:41.130Z,98704.50
2023-03-05T02:08:11.310Z,98695.09
2023-03-05T02:10:52.613Z,98699.69
2023-03-05T02:13:31.688Z,98699.91
2023-03-05T02:16:00.552Z,98689.91
2023-03-05T02:18:27.270Z,98703.78
2023-03-05T02:20:56.533Z,98695.09
2023-03-05T02:23:32.622Z,98683.03
2023-03-05T02:25:59.776Z,98685.03
2023-03-05T02:28:42.583Z,98682.31
2023-03-05T02:31:25.440Z,98665.91
2023-03-05T02:33:54.026Z,98669.09
2023-03-05T02:36:20.725Z,98672.13
2023-03-05T02:38:47.340Z,98666.59
2023-03-05T02:41:15.371Z,98660.19
2023-03-05T02:43:42.266Z,98659.22
2023-03-05T02:46:08.863Z,98657.28
2023-03-05T02:48:35.321Z,98661.09
2023-03-05T02:51:05.391Z,98658.66
2023-03-05T02:53:31.897Z,98653.66
2023-03-05T02:55:58.523Z,98653.84
2023-03-05T02:58:25.001Z,98652.66
2023-03-05T03:00:51.555Z,98647.22
2023-03-05T03:03:18.078Z,98640.78
2023-03-05T03:05:44.659Z,98640.72
2023-03-05T03:08:11.400Z,98638.81
2023-03-05T03:10:38.407Z,98643.88
2023-03-05T03:13:04.911Z,98638.84
2023-03-05T03:15:31.673Z,98636.00
2023-03-05T03:17:58.147Z,98632.38
2023-03-05T03:20:25.417Z,98634.78
2023-03-05T03:22:51.926Z,98627.13
2023-03-05T03:25:23.009Z,98631.41
2023-03-05T03:27:49.684Z,98631.81
2023-03-05T03:30:16.761Z,98634.97
2023-03-05T03:32:43.589Z,98630.75
2023-03-05T03:35:11.303Z,98629.03
2023-03-05T03:37:38.255Z,98629.16
2023-03-05T03:40:06.561Z,98620.38
2023-03-05T03:42:33.378Z,98625.53
2023-03-05T03:45:00.405Z,98617.88
2023-03-05T03:47:26.902Z,98614.94
2023-03-05T03:49:56.647Z,98605.28
2023-03-05T03:52:23.161Z,98608.19
2023-03-05T03:54:52.318Z,98600.22
2023-03-05T03:57:20.991Z,98600.22
2023-03-05T03:59:48.717Z,98599.34
2023-03-05T04:02:15.222Z,98593.44
2023-03-05T04:04:41.856Z,98595.13
2023-03-05T04:07:08.413Z,98590.56
2023-03-05T04:09:34.887Z,98588.88
2023-03-05T04:12:01.436Z,98594.56
2023-03-05T04:14:27.974Z,98588.78
2023-03-05T04:16:54.446Z,98587.06
2023-03-05T04:19:21.629Z,98586.91
2023-03-05T04:21:48.068Z,98580.56
2023-03-05T04:24:15.154Z,98582.03
2023-03-05T04:26:41.699Z,98579.59
2023-03-05T04:29:08.183Z,98578.69
2023-03-05T04:31:34.727Z,98570.94
2023-03-05T04:34:01.242Z,98577.00
2023-03-05T04:36:27.830Z,98569.00
2023-03-05T04:38:54.435Z,98566.34
2023-03-05T04:41:20.939Z,98570.69
2023-03-05T04:43:47.479Z,98566.19
2023-03-05T04:46:14.005Z,98563.25
2023-03-05T04:48:40.558Z,98563.50
2023-03-05T04:51:07.097Z,98557.84
2023-03-05T04:53:33.753Z,98558.25
2023-03-05T04:56:01.503Z,98559.00
2023-03-05T04:58:29.040Z,98555.59
2023-03-05T05:01:05.232Z,98559.03
2023-03-05T05:03:32.397Z,98559.81
2023-03-05T05:06:00.797Z,98557.66
2023-03-05T05:08:28.223Z,98552.56
2023-03-05T05:11:05.238Z,98549.34
2023-03-05T05:13:32.876Z,98551.81
2023-03-05T05:16:01.235Z,98551.22
2023-03-05T05:18:27.724Z,98549.41
2023-03-05T05:20:54.317Z,98546.63
2023-03-05T05:23:20.773Z,98549.03
2023-03-05T05:25:57.474Z,98553.03
2023-03-05T05:28:24.047Z,98552.53
2023-03-05T05:30:50.516Z,98553.63
2023-03-05T05:33:17.030Z,98544.44
2023-03-05T05:35:43.647Z,98542.97
2023-03-05T05:38:10.156Z,98543.59
2023-03-05T05:40:36.608Z,98539.47
2023-03-05T05:43:03.227Z,98534.94
2023-03-05T05:45:29.898Z,98532.69
2023-03-05T05:47:56.510Z,98538.78
2023-03-05T05:50:23.132Z,98541.16
2023-03-05T05:52:51.931Z,98537.53
2023-03-05T05:55:18.712Z,98537.31
2023-03-05T05:57:45.388Z,98526.34
2023-03-05T06:00:13.870Z,98524.63
2023-03-05T06:02:43.244Z,98527.25
2023-03-05T06:05:13.478Z,98531.09
2023-03-05T06:07:39.988Z,98528.50
2023-03-05T06:10:07.785Z,98536.94
2023-03-05T06:12:34.317Z,98525.06
2023-03-05T06:15:00.805Z,98528.66
2023-03-05T06:17:30.702Z,98532.94
2023-03-05T06:19:58.331Z,98528.69
2023-03-05T06:22:25.102Z,98530.28
2023-03-05T06:24:51.566Z,98527.94
2023-03-05T06:27:18.116Z,98536.63
2023-03-05T06:29:44.545Z,98535.59
2023-03-05T06:32:11.227Z,98533.78
2023-03-05T06:34:37.858Z,98534.75
2023-03-05T06:37:04.385Z,98537.97
2023-03-05T06:39:31.598Z,98525.75
2023-03-05T06:41:58.201Z,98525.91
2023-03-05T06:44:25.836Z,98531.84
2023-03-05T06:46:52.318Z,98527.72
2023-03-05T06:49:18.860Z,98535.13
2023-03-05T06:51:45.438Z,98533.16
2023-03-05T06:54:16.074Z,98530.66
2023-03-05T06:56:46.624Z,98532.75
2023-03-05T06:59:16.592Z,98539.34
2023-03-05T07:01:44.660Z,98536.16
2023-03-05T07:04:13.139Z,98532.09
2023-03-05T07:06:42.122Z,98531.41
2023-03-05T07:09:14.772Z,98531.59
2023-03-05T07:11:41.760Z,98524.22
2023-03-05T07:14:08.414Z,98530.16
2023-03-05T07:16:35.692Z,98525.25
2023-03-05T07:19:06.417Z,98519.84
2023-03-05T07:21:36.062Z,98521.31
2023-03-05T07:24:05.587Z,98526.13
2023-03-05T07:26:33.504Z,98523.25
2023-03-05T07:29:01.477Z,98517.50
2023-03-05T07:31:31.148Z,98525.19
2023-03-05T07:34:00.685Z,98524.94
2023-03-05T07:36:27.850Z,98519.63
2023-03-05T07:38:54.459Z,98518.50
2023-03-05T07:41:23.506Z,98518.88
2023-03-05T07:43:52.903Z,98513.06
2023-03-05T07:46:26.823Z,98509.94
2023-03-05T07:48:54.576Z,98502.69
2023-03-05T07:51:23.061Z,98502.91
2023-03-05T07:53:52.370Z,98503.44
2023-03-05T07:56:25.546Z,98500.22
2023-03-05T07:58:52.849Z,98501.69
2023-03-05T08:01:19.533Z,98498.41
2023-03-05T08:03:46.107Z,98498.59
2023-03-05T08:06:12.997Z,98490.50
2023-03-05T08:08:39.712Z,98486.22
2023-03-05T08:11:10.353Z,98483.28
2023-03-05T08:13:38.323Z,98484.53
2023-03-05T08:16:13.038Z,98473.88
2023-03-05T08:18:39.902Z,98478.44
2023-03-05T08:21:16.500Z,98478.22
2023-03-05T08:23:43.015Z,98473.38
2023-03-05T08:26:20.216Z,98466.22
2023-03-05T08:28:47.306Z,98471.06
2023-03-05T08:31:16.990Z,98466.97
2023-03-05T08:33:43.877Z,98461.13
2023-03-05T08:36:10.688Z,98457.38
2023-03-05T08:38:37.216Z,98447.28
2023-03-05T08:41:04.026Z,98451.34
2023-03-05T08:43:31.231Z,98447.28
2023-03-05T08:46:00.521Z,98452.72
2023-03-05T08:48:28.401Z,98452.78
2023-03-05T08:50:56.248Z,98444.59
2023-03-05T08:53:23.213Z,98451.75
2023-03-05T08:55:57.452Z,98450.13
2023-03-05T08:58:24.460Z,98444.59
2023-03-05T09:00:51.790Z,98451.59
2023-03-05T09:03:19.344Z,98447.44
2023-03-05T09:05:45.958Z,98447.72
2023-03-05T09:08:12.614Z,98449.69
2023-03-05T09:10:42.664Z,98452.28
2023-03-05T09:13:10.406Z,98438.84
2023-03-05T09:15:37.284Z,98436.34
2023-03-05T09:18:04.154Z,98435.50
2023-03-05T09:20:31.000Z,98428.50
2023-03-05T09:22:57.502Z,98426.97
2023-03-05T09:25:24.025Z,98430.47
2023-03-05T09:27:50.504Z,98413.84
2023-03-05T09:30:17.500Z,98422.75
2023-03-05T09:32:44.046Z,98421.47
2023-03-05T09:35:11.004Z,98422.47
2023-03-05T09:37:37.506Z,98431.41
2023-03-05T09:40:04.356Z,98427.13
2023-03-05T09:43:44.711Z,98422.66
2023-03-05T09:46:11.206Z,98418.22
2023-03-05T09:48:52.615Z,98417.19
2023-03-05T09:51:27.809Z,98416.97
2023-03-05T09:54:01.674Z,98408.53
2023-03-05T09:56:40.479Z,98406.75
2023-03-05T09:59:46.309Z,98406.91
2023-03-05T10:02:23.197Z,98410.91
2023-03-05T10:05:03.001Z,98402.81
2023-03-05T10:07:34.652Z,98404.34
2023-03-05T10:10:12.090Z,98395.59
2023-03-05T10:12:44.934Z,98394.47
2023-03-05T10:15:22.530Z,98393.22
2023-03-05T10:18:17.761Z,98390.22
2023-03-05T10:20:56.652Z,98393.31
2023-03-05T10:23:30.504Z,98395.78
2023-03-05T10:26:27.775Z,98384.47
2023-03-05T10:29:24.295Z,98381.38
2023-03-05T10:32:34.304Z,98379.00
2023-03-05T10:35:12.975Z,98375.78
2023-03-05T10:38:18.556Z,98375.09
2023-03-05T10:40:52.658Z,98369.72
2023-03-05T10:43:49.741Z,98369.47
2023-03-05T10:46:20.980Z,98372.69
2023-03-05T10:49:02.305Z,98376.38
2023-03-05T10:51:47.556Z,98367.81
2023-03-05T10:54:28.999Z,98373.22
2023-03-05T10:57:16.694Z,98370.53
2023-03-05T10:59:50.178Z,98362.78
2023-03-05T11:02:18.236Z,98367.16
2023-03-05T11:04:47.220Z,98354.94
2023-03-05T11:07:16.638Z,98352.91
2023-03-05T11:10:03.954Z,98351.28
2023-03-05T11:12:34.740Z,98350.72
2023-03-05T11:15:10.146Z,98341.16
2023-03-05T11:17:44.495Z,98337.47
2023-03-05T11:20:35.364Z,98344.13
2023-03-05T11:23:19.549Z,98337.34
2023-03-05T11:26:22.009Z,98337.91
2023-03-05T11:28:54.134Z,98337.28
2023-03-05T11:31:25.626Z,98327.69
2023-03-05T11:33:57.006Z,98335.38
2023-03-05T11:36:29.532Z,98328.78
2023-03-05T11:38:59.634Z,98321.53
2023-03-05T11:41:35.570Z,98318.94
2023-03-05T11:44:13.287Z,98321.19
2023-03-05T11:47:16.720Z,98312.56
2023-03-05T11:49:52.163Z,98310.00
2023-03-05T11:52:26.542Z,98308.81
2023-03-05T11:55:21.577Z,98298.16
2023-03-05T11:58:03.784Z,98298.94
2023-03-05T12:00:34.446Z,98293.50
2023-03-05T12:03:12.211Z,98293.09
2023-03-05T12:05:45.668Z,98292.69
2023-03-05T12:08:25.481Z,98283.63
2023-03-05T12:10:53.156Z,98278.66
2023-03-05T12:13:34.166Z,98276.56
2023-03-05T12:16:41.932Z,98272.94
2023-03-05T12:19:35.651Z,98265.44
2023-03-05T12:22:05.264Z,98257.94
2023-03-05T12:24:31.680Z,98254.13
2023-03-05T12:27:04.540Z,98252.56
2023-03-05T12:29:54.304Z,98243.91
2023-03-05T12:32:25.354Z,98243.66
2023-03-05T12:35:22.433Z,98247.38
2023-03-05T12:37:51.729Z,98235.22
2023-03-05T12:40:18.118Z,98244.72
2023-03-05T12:43:03.078Z,98232.47
2023-03-05T12:45:42.323Z,98230.97
2023-03-05T12:48:12.555Z,98226.31
2023-03-05T12:50:39.042Z,98228.44
2023-03-05T12:53:14.594Z,98218.84
2023-03-05T12:55:47.224Z,98217.50
2023-03-05T12:58:30.458Z,98213.84
2023-03-05T13:01:05.909Z,98200.88
2023-03-05T13:03:44.510Z,98201.28
2023-03-05T13:06:34.082Z,98210.06
2023-03-05T13:09:33.557Z,98193.88
2023-03-05T13:12:03.689Z,98189.41
2023-03-05T13:14:40.913Z,98180.13
2023-03-05T13:18:00.310Z,98175.25
2023-03-05T13:20:29.877Z,98169.06
2023-03-05T13:23:27.581Z,98167.00
2023-03-05T13:25:58.666Z,98170.59
2023-03-05T13:28:26.770Z,98167.84
2023-03-05T13:30:59.001Z,98173.75
2023-03-05T13:33:35.336Z,98157.00
2023-03-05T13:36:02.803Z,98158.94
2023-03-05T13:38:46.315Z,98160.50
2023-03-05T13:41:15.989Z,98159.03
2023-03-05T13:43:50.634Z,98155.47
2023-03-05T13:46:39.265Z,98150.53
2023-03-05T13:49:28.784Z,98150.53
2023-03-05T13:52:02.830Z,98146.34
2023-03-05T13:54:30.337Z,98141.09
2023-03-05T13:57:07.520Z,98135.88
2023-03-05T13:59:39.077Z,98135.94
2023-03-05T14:02:28.746Z,98132.25
2023-03-05T14:04:55.947Z,98139.66
2023-03-05T14:07:33.414Z,98135.94
2023-03-05T14:10:00.709Z,98135.38
2023-03-05T14:12:40.844Z,98128.63
2023-03-05T14:15:25.806Z,98125.19
2023-03-05T14:18:08.566Z,98123.56
2023-03-05T14:20:35.220Z,98122.06
2023-03-05T14:23:45.285Z,98115.56
2023-03-05T14:26:36.280Z,98109.38
2023-03-05T14:29:11.703Z,98099.38
2023-03-05T14:32:09.309Z,98100.69
2023-03-05T14:34:40.656Z,98096.53
2023-03-05T14:37:19.816Z,98095.94
2023-03-05T14:39:55.078Z,98092.81
2023-03-05T14:42:59.225Z,98084.34
2023-03-05T14:45:31.389Z,98082.88
2023-03-05T14:48:02.104Z,98081.47
2023-03-05T14:50:34.665Z,98085.69
2023-03-05T14:53:07.615Z,98080.22
2023-03-05T14:55:38.180Z,98075.69
2023-03-05T14:58:16.560Z,98065.25
2023-03-05T15:00:44.066Z,98066.50
2023-03-05T15:03:16.610Z,98069.97
2023-03-05T15:05:46.111Z,98053.72
2023-03-05T15:08:23.496Z,98053.44
2023-03-05T15:10:51.260Z,98059.94
2023-03-05T15:13:19.394Z,98047.97
2023-03-05T15:15:48.002Z,98042.66
2023-03-05T15:18:17.700Z,98037.94
2023-03-05T15:20:45.578Z,98038.53
2023-03-05T15:23:12.926Z,98037.63
2023-03-05T15:25:40.170Z,98035.75
2023-03-05T15:28:06.870Z,98030.69
2023-03-05T15:30:40.807Z,98031.19
2023-03-05T15:33:17.509Z,98033.53
2023-03-05T15:35:44.719Z,98028.16
2023-03-05T15:38:11.199Z,98025.44
2023-03-05T15:40:37.691Z,98024.41
2023-03-05T15:43:04.298Z,98021.16
2023-03-05T15:45:31.418Z,98021.16
2023-03-05T15:47:58.567Z,98023.56
2023-03-05T15:50:25.140Z,98020.31
2023-03-05T15:52:51.978Z,98009.78
2023-03-05T15:55:18.644Z,98016.88
2023-03-05T15:57:49.582Z,98012.63
2023-03-05T16:00:26.311Z,98012.13
2023-03-05T16:02:53.435Z,98014.34
2023-03-05T16:05:20.133Z,98014.69
2023-03-05T16:07:51.756Z,98012.63
2023-03-05T16:10:25.218Z,98010.63
2023-03-05T16:13:08.642Z,98005.50
2023-03-05T16:15:35.653Z,98003.03
2023-03-05T16:18:08.012Z,98003.44
2023-03-05T16:20:36.203Z,97987.69
2023-03-05T16:23:05.122Z,97994.66
2023-03-05T16:25:31.717Z,97998.78
2023-03-05T16:27:58.294Z,97988.09
2023-03-05T16:30:25.098Z,97990.38
2023-03-05T16:32:53.624Z,97989.22
2023-03-05T16:35:20.558Z,97985.16
2023-03-05T16:37:47.690Z,97975.91
2023-03-05T16:40:14.656Z,97971.34
2023-03-05T16:42:41.859Z,97967.84
2023-03-05T16:45:11.044Z,97978.22
2023-03-05T16:47:38.178Z,97967.84
2023-03-05T16:50:06.395Z,97964.66
2023-03-05T16:52:32.882Z,97969.47
2023-03-05T16:54:59.512Z,97971.56
2023-03-05T16:57:26.420Z,97968.81
2023-03-05T16:59:54.054Z,97959.47
2023-03-05T17:02:20.917Z,97968.19
2023-03-05T17:04:48.872Z,97958.63
2023-03-05T17:07:15.408Z,97962.22
2023-03-05T17:09:42.420Z,97957.94
2023-03-05T17:12:08.939Z,97951.38
2023-03-05T17:14:35.611Z,97955.66
2023-03-05T17:17:02.352Z,97950.44
2023-03-05T17:19:28.811Z,97947.56
2023-03-05T17:21:55.368Z,97944.38
2023-03-05T17:24:22.789Z,97939.41
2023-03-05T17:26:50.189Z,97937.81
2023-03-05T17:29:18.853Z,97946.56
2023-03-05T17:31:46.697Z,97946.47
2023-03-05T17:34:13.382Z,97945.63
2023-03-05T17:36:39.916Z,97950.78
2023-03-05T17:39:06.684Z,97947.31
2023-03-05T17:41:33.743Z,97951.34
2023-03-05T17:44:00.310Z,97958.34
2023-03-05T17:46:26.830Z,97952.94
2023-03-05T17:48:53.395Z,97949.66
2023-03-05T17:51:19.928Z,97953.59
2023-03-05T17:53:46.456Z,97951.47
2023-03-05T17:56:16.843Z,97951.09
2023-03-05T17:58:43.735Z,97952.78
2023-03-05T18:01:10.362Z,97945.13
2023-03-05T18:03:37.517Z,97945.66
2023-03-05T18:06:04.883Z,97939.13
2023-03-05T18:08:31.865Z,97936.41
2023-03-05T18:10:58.371Z,97941.38
2023-03-05T18:13:24.955Z,97940.75
2023-03-05T18:15:51.449Z,97940.75
2023-03-05T18:18:18.648Z,97931.56
2023-03-05T18:20:46.044Z,97930.88
2023-03-05T18:23:13.034Z,97926.69
2023-03-05T18:25:40.117Z,97931.44
2023-03-05T18:28:13.666Z,97929.44
2023-03-05T18:30:42.918Z,97921.94
2023-03-05T18:33:19.568Z,97925.47
2023-03-05T18:35:46.371Z,97925.44
2023-03-05T18:38:12.860Z,97920.88
2023-03-05T18:40:40.221Z,97919.81
2023-03-05T18:43:06.728Z,97919.34
2023-03-05T18:45:34.168Z,97913.31
2023-03-05T18:48:00.786Z,97913.22
2023-03-05T18:50:28.362Z,97907.91
2023-03-05T18:52:55.577Z,97903.19
2023-03-05T18:55:26.715Z,97904.31
2023-03-05T18:57:54.001Z,97905.78
2023-03-05T19:00:29.124Z,97906.94
2023-03-05T19:02:57.105Z,97900.28
2023-03-05T19:05:27.900Z,97896.66
2023-03-05T19:07:56.119Z,97898.81
2023-03-05T19:10:23.366Z,97888.97
2023-03-05T19:12:57.817Z,97898.53
2023-03-05T19:15:24.370Z,97898.13
2023-03-05T19:17:51.658Z,97897.00
2023-03-05T19:20:18.696Z,97893.66
2023-03-05T19:22:45.225Z,97893.16
2023-03-05T19:25:12.861Z,97887.34
2023-03-05T19:27:42.335Z,97887.81
2023-03-05T19:30:11.041Z,97889.66
2023-03-05T19:32:37.667Z,97885.88
2023-03-05T19:35:04.902Z,97880.69
2023-03-05T19:37:31.957Z,97884.59
2023-03-05T19:39:58.468Z,97876.53
2023-03-05T19:42:24.984Z,97869.16
2023-03-05T19:44:51.558Z,97867.91
2023-03-05T19:47:18.142Z,97871.31
2023-03-05T19:49:44.636Z,97872.41
2023-03-05T19:52:11.431Z,97872.97
2023-03-05T19:54:37.952Z,97862.63
2023-03-05T19:57:04.464Z,97867.84
2023-03-05T19:59:30.904Z,97863.31
2023-03-05T20:01:57.684Z,97860.25
2023-03-05T20:04:25.138Z,97863.09
2023-03-05T20:06:51.979Z,97850.53
2023-03-05T20:09:19.013Z,97853.75
2023-03-05T20:11:47.043Z,97850.81
2023-03-05T20:14:14.525Z,97847.03
2023-03-05T20:16:42.990Z,97850.50
2023-03-05T20:19:17.352Z,97845.53
2023-03-05T20:21:44.947Z,97845.41
2023-03-05T20:24:18.122Z,97839.69
2023-03-05T20:26:47.347Z,97841.25
2023-03-05T20:29:18.045Z,97841.34
2023-03-05T20:31:45.632Z,97841.88
2023-03-05T20:34:17.222Z,97844.94
2023-03-05T20:36:47.050Z,97835.84
2023-03-05T20:39:13.781Z,97834.72
2023-03-05T20:41:40.630Z,97836.63
2023-03-05T20:44:08.398Z,97832.53
2023-03-05T20:46:41.840Z,97831.09
2023-03-05T20:49:09.273Z,97827.81
2023-03-05T20:51:38.350Z,97830.50
2023-03-05T20:54:12.111Z,97833.84
2023-03-05T20:56:38.709Z,97828.06
2023-03-05T20:59:08.646Z,97824.66
2023-03-05T21:01:39.159Z,97824.59
2023-03-05T21:04:07.142Z,97815.34
2023-03-05T21:06:34.890Z,97815.72
2023-03-05T21:09:01.538Z,97808.75
2023-03-05T21:11:28.494Z,97806.88
2023-03-05T21:13:55.294Z,97807.34
2023-03-05T21:16:26.045Z,97804.28
2023-03-05T21:18:53.844Z,97804.53
2023-03-05T21:21:20.555Z,97797.06
2023-03-05T21:23:47.371Z,97793.06
2023-03-05T21:26:14.107Z,97790.28
2023-03-05T21:28:41.147Z,97793.78
2023-03-05T21:31:13.937Z,97787.59
2023-03-05T21:33:40.886Z,97789.09
2023-03-05T21:36:07.705Z,97782.69
2023-03-05T21:38:34.702Z,97777.16
2023-03-05T21:41:03.112Z,97772.56
2023-03-05T21:43:31.222Z,97771.66
2023-03-05T21:46:01.811Z,97776.94
2023-03-05T21:48:29.366Z,97769.03
2023-03-05T21:50:57.252Z,97762.88
2023-03-05T21:53:24.241Z,97753.34
2023-03-05T21:56:10.477Z,97751.44
2023-03-05T21:58:36.963Z,97749.28
2023-03-05T22:01:03.827Z,97749.28
2023-03-05T22:03:30.489Z,97744.59
2023-03-05T22:05:57.461Z,97734.38
2023-03-05T22:08:24.853Z,97733.09
2023-03-05T22:10:52.051Z,97727.53
2023-03-05T22:13:19.993Z,97728.78
2023-03-05T22:15:52.584Z,97729.03
2023-03-05T22:18:26.978Z,97713.00
2023-03-05T22:20:54.483Z,97704.34
2023-03-05T22:23:23.938Z,97704.44
2023-03-05T22:26:05.745Z,97701.34
2023-03-05T22:28:34.136Z,97702.06
2023-03-05T22:31:01.268Z,97699.19
2023-03-05T22:33:28.841Z,97695.34
2023-03-05T22:35:55.416Z,97695.59
2023-03-05T22:38:22.429Z,97687.63
2023-03-05T22:40:50.432Z,97686.78
2023-03-05T22:43:19.896Z,97682.97
2023-03-05T22:45:46.515Z,97683.06
2023-03-05T22:48:13.122Z,97686.25
2023-03-05T22:50:43.844Z,97677.88
2023-03-05T22:53:12.077Z,97681.63
2023-03-05T22:55:42.700Z,97679.09
2023-03-05T22:58:09.928Z,97672.38
2023-03-05T23:00:37.728Z,97667.47
2023-03-05T23:03:06.321Z,97671.00
2023-03-05T23:05:34.932Z,97665.00
2023-03-05T23:08:01.409Z,97665.59
2023-03-05T23:10:28.720Z,97667.31
2023-03-05T23:12:57.902Z,97655.09
2023-03-05T23:15:35.325Z,97652.91
2023-03-05T23:18:03.484Z,97644.75
2023-03-05T23:20:36.676Z,97649.97
2023-03-05T23:23:04.288Z,97639.50
2023-03-05T23:25:33.619Z,97638.84
2023-03-05T23:28:01.141Z,97636.91
2023-03-05T23:30:37.140Z,97631.94
2023-03-05T23:33:19.544Z,97642.25
2023-03-05T23:35:56.843Z,97638.66
2023-03-05T23:38:25.692Z,97643.66
2023-03-05T23:40:55.368Z,97639.63
2023-03-05T23:43:24.974Z,97639.22
2023-03-05T23:45:56.785Z,97634.19
2023-03-05T23:48:26.044Z,97636.47
2023-03-05T23:50:53.489Z,97629.25
2023-03-05T23:53:28.360Z,97634.03
2023-03-05T23:55:55.896Z,97632.69
2023-03-05T23:58:32.898Z,97620.94
